sensor_id;sensor_type;location;lat;lon;timestamp;P1;durP1;ratioP1;P2;durP2;ratioP2
68089;SDS011;54880;50.986;6.990;2023-04-16T00:01:52;35.50;;;17.27;;
68089;SDS011;54880;50.986;6.990;2023-04-16T00:04:18;38.40;;;17.30;;
68089;SDS011;54880;50.986;6.990;2023-04-16T00:06:43;36.13;;;16.53;;
68089;SDS011;54880;50.986;6.990;2023-04-16T00:09:08;41.97;;;17.73;;
68089;SDS011;54880;50.986;6.990;2023-04-16T00:11:33;40.93;;;18.30;;
68089;SDS011;54880;50.986;6.990;2023-04-16T00:13:59;40.93;;;17.90;;
68089;SDS011;54880;50.986;6.990;2023-04-16T00:16:24;38.50;;;17.70;;
68089;SDS011;54880;50.986;6.990;2023-04-16T00:18:49;37.37;;;17.03;;
68089;SDS011;54880;50.986;6.990;2023-04-16T00:21:14;40.30;;;17.43;;
68089;SDS011;54880;50.986;6.990;2023-04-16T00:23:40;35.83;;;16.37;;
68089;SDS011;54880;50.986;6.990;2023-04-16T00:26:05;36.47;;;16.03;;
68089;SDS011;54880;50.986;6.990;2023-04-16T00:28:30;41.23;;;18.00;;
68089;SDS011;54880;50.986;6.990;2023-04-16T00:30:56;37.83;;;16.67;;
68089;SDS011;54880;50.986;6.990;2023-04-16T00:33:21;37.67;;;17.97;;
68089;SDS011;54880;50.986;6.990;2023-04-16T00:35:46;42.07;;;17.90;;
68089;SDS011;54880;50.986;6.990;2023-04-16T00:38:12;37.10;;;16.73;;
68089;SDS011;54880;50.986;6.990;2023-04-16T00:40:38;43.50;;;17.47;;
68089;SDS011;54880;50.986;6.990;2023-04-16T00:43:03;41.73;;;19.13;;
68089;SDS011;54880;50.986;6.990;2023-04-16T00:45:28;43.90;;;17.60;;
68089;SDS011;54880;50.986;6.990;2023-04-16T00:47:54;46.67;;;18.52;;
68089;SDS011;54880;50.986;6.990;2023-04-16T00:50:19;48.10;;;19.20;;
68089;SDS011;54880;50.986;6.990;2023-04-16T00:52:46;44.65;;;19.10;;
68089;SDS011;54880;50.986;6.990;2023-04-16T00:55:11;53.85;;;20.10;;
68089;SDS011;54880;50.986;6.990;2023-04-16T00:57:37;49.22;;;20.20;;
68089;SDS011;54880;50.986;6.990;2023-04-16T01:00:03;48.87;;;18.97;;
68089;SDS011;54880;50.986;6.990;2023-04-16T01:02:28;47.58;;;20.70;;
68089;SDS011;54880;50.986;6.990;2023-04-16T01:04:53;49.20;;;18.97;;
68089;SDS011;54880;50.986;6.990;2023-04-16T01:07:19;46.47;;;19.33;;
68089;SDS011;54880;50.986;6.990;2023-04-16T01:09:44;47.87;;;19.70;;
68089;SDS011;54880;50.986;6.990;2023-04-16T01:12:10;55.50;;;20.83;;
68089;SDS011;54880;50.986;6.990;2023-04-16T01:14:35;52.07;;;21.00;;
68089;SDS011;54880;50.986;6.990;2023-04-16T01:17:02;54.88;;;20.58;;
68089;SDS011;54880;50.986;6.990;2023-04-16T01:19:27;46.90;;;20.33;;
68089;SDS011;54880;50.986;6.990;2023-04-16T01:21:55;49.30;;;20.48;;
68089;SDS011;54880;50.986;6.990;2023-04-16T01:24:20;57.03;;;20.23;;
68089;SDS011;54880;50.986;6.990;2023-04-16T01:26:45;52.93;;;21.43;;
68089;SDS011;54880;50.986;6.990;2023-04-16T01:29:11;53.17;;;20.37;;
68089;SDS011;54880;50.986;6.990;2023-04-16T01:31:36;52.83;;;21.50;;
68089;SDS011;54880;50.986;6.990;2023-04-16T01:34:05;49.50;;;20.63;;
68089;SDS011;54880;50.986;6.990;2023-04-16T01:36:31;47.38;;;18.02;;
68089;SDS011;54880;50.986;6.990;2023-04-16T01:38:56;46.70;;;19.80;;
68089;SDS011;54880;50.986;6.990;2023-04-16T01:41:22;52.50;;;19.83;;
68089;SDS011;54880;50.986;6.990;2023-04-16T01:43:47;50.35;;;19.45;;
68089;SDS011;54880;50.986;6.990;2023-04-16T01:48:38;41.45;;;19.00;;
68089;SDS011;54880;50.986;6.990;2023-04-16T01:51:03;47.97;;;19.03;;
68089;SDS011;54880;50.986;6.990;2023-04-16T01:53:29;40.20;;;18.37;;
68089;SDS011;54880;50.986;6.990;2023-04-16T01:55:54;41.73;;;18.80;;
68089;SDS011;54880;50.986;6.990;2023-04-16T01:58:19;43.73;;;17.90;;
68089;SDS011;54880;50.986;6.990;2023-04-16T02:00:45;42.57;;;18.87;;
68089;SDS011;54880;50.986;6.990;2023-04-16T02:03:10;47.43;;;18.67;;
68089;SDS011;54880;50.986;6.990;2023-04-16T02:05:35;46.43;;;19.20;;
68089;SDS011;54880;50.986;6.990;2023-04-16T02:08:00;45.10;;;18.20;;
68089;SDS011;54880;50.986;6.990;2023-04-16T02:10:26;35.97;;;16.73;;
68089;SDS011;54880;50.986;6.990;2023-04-16T02:12:51;44.58;;;17.02;;
68089;SDS011;54880;50.986;6.990;2023-04-16T02:15:17;46.60;;;18.17;;
68089;SDS011;54880;50.986;6.990;2023-04-16T02:17:42;40.53;;;16.87;;
68089;SDS011;54880;50.986;6.990;2023-04-16T02:20:09;46.08;;;18.02;;
68089;SDS011;54880;50.986;6.990;2023-04-16T02:22:39;48.50;;;18.38;;
68089;SDS011;54880;50.986;6.990;2023-04-16T02:25:05;44.40;;;17.83;;
68089;SDS011;54880;50.986;6.990;2023-04-16T02:27:30;40.43;;;17.20;;
68089;SDS011;54880;50.986;6.990;2023-04-16T02:30:04;43.45;;;18.40;;
68089;SDS011;54880;50.986;6.990;2023-04-16T02:32:32;41.50;;;17.20;;
68089;SDS011;54880;50.986;6.990;2023-04-16T02:34:58;40.47;;;16.15;;
68089;SDS011;54880;50.986;6.990;2023-04-16T02:37:24;36.17;;;15.40;;
68089;SDS011;54880;50.986;6.990;2023-04-16T02:39:50;40.08;;;14.90;;
68089;SDS011;54880;50.986;6.990;2023-04-16T02:42:16;35.08;;;15.27;;
68089;SDS011;54880;50.986;6.990;2023-04-16T02:44:42;38.00;;;15.47;;
68089;SDS011;54880;50.986;6.990;2023-04-16T02:47:07;38.23;;;16.00;;
68089;SDS011;54880;50.986;6.990;2023-04-16T02:49:32;38.63;;;14.80;;
68089;SDS011;54880;50.986;6.990;2023-04-16T02:51:57;38.93;;;15.77;;
68089;SDS011;54880;50.986;6.990;2023-04-16T02:54:23;38.23;;;15.03;;
68089;SDS011;54880;50.986;6.990;2023-04-16T02:56:48;37.30;;;16.03;;
68089;SDS011;54880;50.986;6.990;2023-04-16T02:59:13;39.43;;;15.80;;
68089;SDS011;54880;50.986;6.990;2023-04-16T03:01:39;38.60;;;16.33;;
68089;SDS011;54880;50.986;6.990;2023-04-16T03:04:04;42.88;;;16.58;;
68089;SDS011;54880;50.986;6.990;2023-04-16T03:06:30;32.70;;;15.03;;
68089;SDS011;54880;50.986;6.990;2023-04-16T03:08:55;35.47;;;15.97;;
68089;SDS011;54880;50.986;6.990;2023-04-16T03:11:21;32.10;;;14.77;;
68089;SDS011;54880;50.986;6.990;2023-04-16T03:13:46;39.93;;;15.50;;
68089;SDS011;54880;50.986;6.990;2023-04-16T03:16:11;40.67;;;16.50;;
68089;SDS011;54880;50.986;6.990;2023-04-16T03:18:36;44.00;;;16.30;;
68089;SDS011;54880;50.986;6.990;2023-04-16T03:21:02;36.20;;;14.63;;
68089;SDS011;54880;50.986;6.990;2023-04-16T03:23:27;46.70;;;15.70;;
68089;SDS011;54880;50.986;6.990;2023-04-16T03:25:52;39.93;;;16.77;;
68089;SDS011;54880;50.986;6.990;2023-04-16T03:28:17;33.40;;;14.13;;
68089;SDS011;54880;50.986;6.990;2023-04-16T03:30:48;37.23;;;15.27;;
68089;SDS011;54880;50.986;6.990;2023-04-16T03:33:14;37.55;;;15.90;;
68089;SDS011;54880;50.986;6.990;2023-04-16T03:35:39;39.20;;;15.07;;
68089;SDS011;54880;50.986;6.990;2023-04-16T03:38:04;49.13;;;16.40;;
68089;SDS011;54880;50.986;6.990;2023-04-16T03:40:30;42.63;;;17.00;;
68089;SDS011;54880;50.986;6.990;2023-04-16T03:42:56;42.97;;;16.80;;
68089;SDS011;54880;50.986;6.990;2023-04-16T03:45:22;38.27;;;15.83;;
68089;SDS011;54880;50.986;6.990;2023-04-16T03:47:49;43.88;;;16.27;;
68089;SDS011;54880;50.986;6.990;2023-04-16T03:50:19;51.47;;;18.48;;
68089;SDS011;54880;50.986;6.990;2023-04-16T03:52:45;50.17;;;18.45;;
68089;SDS011;54880;50.986;6.990;2023-04-16T03:55:11;49.53;;;20.47;;
68089;SDS011;54880;50.986;6.990;2023-04-16T03:57:36;52.88;;;19.75;;
68089;SDS011;54880;50.986;6.990;2023-04-16T04:00:07;50.60;;;19.52;;
68089;SDS011;54880;50.986;6.990;2023-04-16T04:02:58;47.13;;;18.87;;
68089;SDS011;54880;50.986;6.990;2023-04-16T04:05:23;49.88;;;19.88;;
68089;SDS011;54880;50.986;6.990;2023-04-16T04:07:48;57.38;;;20.75;;
68089;SDS011;54880;50.986;6.990;2023-04-16T04:10:14;59.13;;;21.50;;
68089;SDS011;54880;50.986;6.990;2023-04-16T04:12:40;58.33;;;21.08;;
68089;SDS011;54880;50.986;6.990;2023-04-16T04:15:06;59.37;;;24.13;;
68089;SDS011;54880;50.986;6.990;2023-04-16T04:17:31;59.43;;;23.30;;
68089;SDS011;54880;50.986;6.990;2023-04-16T04:19:56;62.60;;;23.53;;
68089;SDS011;54880;50.986;6.990;2023-04-16T04:22:22;59.23;;;22.23;;
68089;SDS011;54880;50.986;6.990;2023-04-16T04:24:47;63.10;;;21.63;;
68089;SDS011;54880;50.986;6.990;2023-04-16T04:27:12;64.00;;;24.27;;
68089;SDS011;54880;50.986;6.990;2023-04-16T04:29:37;66.20;;;22.70;;
68089;SDS011;54880;50.986;6.990;2023-04-16T04:32:04;66.07;;;23.63;;
68089;SDS011;54880;50.986;6.990;2023-04-16T04:34:29;69.75;;;25.50;;
68089;SDS011;54880;50.986;6.990;2023-04-16T04:36:56;63.93;;;24.30;;
68089;SDS011;54880;50.986;6.990;2023-04-16T04:39:22;65.53;;;25.25;;
68089;SDS011;54880;50.986;6.990;2023-04-16T04:41:49;65.60;;;24.05;;
68089;SDS011;54880;50.986;6.990;2023-04-16T04:44:17;63.05;;;24.38;;
68089;SDS011;54880;50.986;6.990;2023-04-16T04:46:42;63.97;;;23.43;;
68089;SDS011;54880;50.986;6.990;2023-04-16T04:49:07;59.90;;;23.43;;
68089;SDS011;54880;50.986;6.990;2023-04-16T04:51:32;65.20;;;23.77;;
68089;SDS011;54880;50.986;6.990;2023-04-16T04:53:58;66.80;;;23.20;;
68089;SDS011;54880;50.986;6.990;2023-04-16T04:56:23;68.27;;;25.03;;
68089;SDS011;54880;50.986;6.990;2023-04-16T04:58:49;58.67;;;23.37;;
68089;SDS011;54880;50.986;6.990;2023-04-16T05:01:15;73.47;;;24.80;;
68089;SDS011;54880;50.986;6.990;2023-04-16T05:03:40;63.20;;;24.47;;
68089;SDS011;54880;50.986;6.990;2023-04-16T05:06:06;71.33;;;24.27;;
68089;SDS011;54880;50.986;6.990;2023-04-16T05:08:31;65.53;;;23.43;;
68089;SDS011;54880;50.986;6.990;2023-04-16T05:10:56;68.15;;;24.88;;
68089;SDS011;54880;50.986;6.990;2023-04-16T05:13:22;70.17;;;25.03;;
68089;SDS011;54880;50.986;6.990;2023-04-16T05:15:47;68.43;;;25.17;;
68089;SDS011;54880;50.986;6.990;2023-04-16T05:18:12;68.80;;;25.55;;
68089;SDS011;54880;50.986;6.990;2023-04-16T05:20:37;64.10;;;25.17;;
68089;SDS011;54880;50.986;6.990;2023-04-16T05:23:03;66.93;;;26.13;;
68089;SDS011;54880;50.986;6.990;2023-04-16T05:25:28;65.63;;;24.50;;
68089;SDS011;54880;50.986;6.990;2023-04-16T05:27:53;65.10;;;24.73;;
68089;SDS011;54880;50.986;6.990;2023-04-16T05:30:18;61.13;;;23.63;;
68089;SDS011;54880;50.986;6.990;2023-04-16T05:32:43;65.17;;;24.60;;
68089;SDS011;54880;50.986;6.990;2023-04-16T05:35:09;70.70;;;24.90;;
68089;SDS011;54880;50.986;6.990;2023-04-16T05:37:34;63.77;;;25.77;;
68089;SDS011;54880;50.986;6.990;2023-04-16T05:40:00;74.07;;;25.60;;
68089;SDS011;54880;50.986;6.990;2023-04-16T05:42:25;63.47;;;23.33;;
68089;SDS011;54880;50.986;6.990;2023-04-16T05:44:50;64.27;;;23.33;;
68089;SDS011;54880;50.986;6.990;2023-04-16T05:47:16;63.17;;;23.33;;
68089;SDS011;54880;50.986;6.990;2023-04-16T05:49:41;63.13;;;23.13;;
68089;SDS011;54880;50.986;6.990;2023-04-16T05:52:07;66.63;;;23.90;;
68089;SDS011;54880;50.986;6.990;2023-04-16T05:54:32;70.80;;;24.80;;
68089;SDS011;54880;50.986;6.990;2023-04-16T05:56:58;65.00;;;23.20;;
68089;SDS011;54880;50.986;6.990;2023-04-16T05:59:25;58.58;;;22.73;;
68089;SDS011;54880;50.986;6.990;2023-04-16T06:01:50;65.03;;;23.10;;
68089;SDS011;54880;50.986;6.990;2023-04-16T06:04:16;58.22;;;22.20;;
68089;SDS011;54880;50.986;6.990;2023-04-16T06:06:41;63.93;;;22.70;;
68089;SDS011;54880;50.986;6.990;2023-04-16T06:09:06;59.28;;;21.70;;
68089;SDS011;54880;50.986;6.990;2023-04-16T06:11:32;70.63;;;22.67;;
68089;SDS011;54880;50.986;6.990;2023-04-16T06:13:57;61.43;;;21.67;;
68089;SDS011;54880;50.986;6.990;2023-04-16T06:16:22;58.63;;;23.70;;
68089;SDS011;54880;50.986;6.990;2023-04-16T06:18:47;58.90;;;22.63;;
68089;SDS011;54880;50.986;6.990;2023-04-16T06:21:12;58.17;;;23.47;;
68089;SDS011;54880;50.986;6.990;2023-04-16T06:23:38;66.17;;;23.27;;
68089;SDS011;54880;50.986;6.990;2023-04-16T06:26:03;57.80;;;21.80;;
68089;SDS011;54880;50.986;6.990;2023-04-16T06:28:29;62.70;;;23.33;;
68089;SDS011;54880;50.986;6.990;2023-04-16T06:30:54;60.13;;;22.13;;
68089;SDS011;54880;50.986;6.990;2023-04-16T06:33:19;58.90;;;22.60;;
68089;SDS011;54880;50.986;6.990;2023-04-16T06:35:45;53.13;;;20.63;;
68089;SDS011;54880;50.986;6.990;2023-04-16T06:38:10;54.73;;;22.60;;
68089;SDS011;54880;50.986;6.990;2023-04-16T06:40:35;55.00;;;22.13;;
68089;SDS011;54880;50.986;6.990;2023-04-16T06:43:01;56.65;;;22.33;;
68089;SDS011;54880;50.986;6.990;2023-04-16T06:45:27;54.50;;;21.63;;
68089;SDS011;54880;50.986;6.990;2023-04-16T06:47:52;56.03;;;21.83;;
68089;SDS011;54880;50.986;6.990;2023-04-16T06:50:17;55.23;;;23.23;;
68089;SDS011;54880;50.986;6.990;2023-04-16T06:52:42;48.47;;;20.10;;
68089;SDS011;54880;50.986;6.990;2023-04-16T06:55:08;48.20;;;20.27;;
68089;SDS011;54880;50.986;6.990;2023-04-16T06:57:34;50.05;;;19.50;;
68089;SDS011;54880;50.986;6.990;2023-04-16T06:59:59;52.17;;;20.48;;
68089;SDS011;54880;50.986;6.990;2023-04-16T07:02:25;52.70;;;20.37;;
68089;SDS011;54880;50.986;6.990;2023-04-16T07:04:50;51.20;;;20.00;;
68089;SDS011;54880;50.986;6.990;2023-04-16T07:07:16;43.53;;;17.50;;
68089;SDS011;54880;50.986;6.990;2023-04-16T07:09:42;46.60;;;18.60;;
68089;SDS011;54880;50.986;6.990;2023-04-16T07:12:07;40.30;;;17.93;;
68089;SDS011;54880;50.986;6.990;2023-04-16T07:14:33;37.73;;;16.30;;
68089;SDS011;54880;50.986;6.990;2023-04-16T07:16:58;45.97;;;17.50;;
68089;SDS011;54880;50.986;6.990;2023-04-16T07:19:23;45.15;;;17.30;;
68089;SDS011;54880;50.986;6.990;2023-04-16T07:21:49;42.23;;;16.97;;
68089;SDS011;54880;50.986;6.990;2023-04-16T07:24:15;41.55;;;16.65;;
68089;SDS011;54880;50.986;6.990;2023-04-16T07:26:41;35.03;;;15.13;;
68089;SDS011;54880;50.986;6.990;2023-04-16T07:29:06;39.17;;;16.97;;
68089;SDS011;54880;50.986;6.990;2023-04-16T07:31:31;38.83;;;16.80;;
68089;SDS011;54880;50.986;6.990;2023-04-16T07:33:57;39.83;;;16.23;;
68089;SDS011;54880;50.986;6.990;2023-04-16T07:36:22;41.35;;;15.70;;
68089;SDS011;54880;50.986;6.990;2023-04-16T07:38:47;35.33;;;14.83;;
68089;SDS011;54880;50.986;6.990;2023-04-16T07:41:13;38.77;;;15.70;;
68089;SDS011;54880;50.986;6.990;2023-04-16T07:43:38;35.20;;;15.70;;
68089;SDS011;54880;50.986;6.990;2023-04-16T07:46:04;38.93;;;16.27;;
68089;SDS011;54880;50.986;6.990;2023-04-16T07:48:29;39.30;;;15.63;;
68089;SDS011;54880;50.986;6.990;2023-04-16T07:50:54;35.42;;;16.17;;
68089;SDS011;54880;50.986;6.990;2023-04-16T07:53:20;33.80;;;15.38;;
68089;SDS011;54880;50.986;6.990;2023-04-16T07:55:45;32.53;;;14.70;;
68089;SDS011;54880;50.986;6.990;2023-04-16T07:58:10;33.63;;;15.03;;
68089;SDS011;54880;50.986;6.990;2023-04-16T08:00:36;34.50;;;15.83;;
68089;SDS011;54880;50.986;6.990;2023-04-16T08:03:01;31.00;;;14.27;;
68089;SDS011;54880;50.986;6.990;2023-04-16T08:05:26;30.90;;;14.83;;
68089;SDS011;54880;50.986;6.990;2023-04-16T08:07:51;30.20;;;13.93;;
68089;SDS011;54880;50.986;6.990;2023-04-16T08:10:17;31.77;;;15.33;;
68089;SDS011;54880;50.986;6.990;2023-04-16T08:12:42;32.93;;;15.70;;
68089;SDS011;54880;50.986;6.990;2023-04-16T08:15:07;33.60;;;16.33;;
68089;SDS011;54880;50.986;6.990;2023-04-16T08:17:33;33.63;;;15.80;;
68089;SDS011;54880;50.986;6.990;2023-04-16T08:19:58;36.13;;;15.75;;
68089;SDS011;54880;50.986;6.990;2023-04-16T08:22:24;31.97;;;15.33;;
68089;SDS011;54880;50.986;6.990;2023-04-16T08:24:50;31.67;;;16.20;;
68089;SDS011;54880;50.986;6.990;2023-04-16T08:27:15;33.90;;;15.17;;
68089;SDS011;54880;50.986;6.990;2023-04-16T08:29:41;31.00;;;15.73;;
68089;SDS011;54880;50.986;6.990;2023-04-16T08:32:06;35.30;;;14.40;;
68089;SDS011;54880;50.986;6.990;2023-04-16T08:34:33;34.03;;;15.88;;
68089;SDS011;54880;50.986;6.990;2023-04-16T08:36:58;32.90;;;16.57;;
68089;SDS011;54880;50.986;6.990;2023-04-16T08:39:24;35.10;;;15.27;;
68089;SDS011;54880;50.986;6.990;2023-04-16T08:41:49;32.97;;;16.13;;
68089;SDS011;54880;50.986;6.990;2023-04-16T08:44:20;32.10;;;14.60;;
68089;SDS011;54880;50.986;6.990;2023-04-16T08:46:49;32.58;;;15.25;;
68089;SDS011;54880;50.986;6.990;2023-04-16T08:49:15;30.17;;;14.87;;
68089;SDS011;54880;50.986;6.990;2023-04-16T08:51:49;36.95;;;15.18;;
68089;SDS011;54880;50.986;6.990;2023-04-16T08:54:19;34.33;;;15.05;;
68089;SDS011;54880;50.986;6.990;2023-04-16T08:56:48;44.58;;;16.80;;
68089;SDS011;54880;50.986;6.990;2023-04-16T08:59:15;53.05;;;14.95;;
68089;SDS011;54880;50.986;6.990;2023-04-16T09:01:40;33.70;;;14.90;;
68089;SDS011;54880;50.986;6.990;2023-04-16T09:04:06;31.00;;;15.50;;
68089;SDS011;54880;50.986;6.990;2023-04-16T09:06:31;37.83;;;15.27;;
68089;SDS011;54880;50.986;6.990;2023-04-16T09:08:58;34.85;;;14.85;;
68089;SDS011;54880;50.986;6.990;2023-04-16T09:11:23;46.55;;;17.35;;
68089;SDS011;54880;50.986;6.990;2023-04-16T09:13:49;59.70;;;15.77;;
68089;SDS011;54880;50.986;6.990;2023-04-16T09:16:14;31.67;;;15.10;;
68089;SDS011;54880;50.986;6.990;2023-04-16T09:18:39;32.10;;;15.60;;
68089;SDS011;54880;50.986;6.990;2023-04-16T09:21:07;33.38;;;15.77;;
68089;SDS011;54880;50.986;6.990;2023-04-16T09:23:33;46.80;;;15.77;;
68089;SDS011;54880;50.986;6.990;2023-04-16T09:25:58;41.13;;;15.15;;
68089;SDS011;54880;50.986;6.990;2023-04-16T09:31:09;34.35;;;14.50;;
68089;SDS011;54880;50.986;6.990;2023-04-16T09:33:34;37.47;;;14.93;;
68089;SDS011;54880;50.986;6.990;2023-04-16T09:36:00;35.20;;;15.50;;
68089;SDS011;54880;50.986;6.990;2023-04-16T09:38:25;34.77;;;15.67;;
68089;SDS011;54880;50.986;6.990;2023-04-16T09:41:05;36.35;;;15.93;;
68089;SDS011;54880;50.986;6.990;2023-04-16T09:43:31;29.67;;;14.27;;
68089;SDS011;54880;50.986;6.990;2023-04-16T09:45:56;33.47;;;15.80;;
68089;SDS011;54880;50.986;6.990;2023-04-16T09:48:28;32.60;;;15.50;;
68089;SDS011;54880;50.986;6.990;2023-04-16T09:50:54;32.80;;;15.30;;
68089;SDS011;54880;50.986;6.990;2023-04-16T09:53:22;32.80;;;16.57;;
68089;SDS011;54880;50.986;6.990;2023-04-16T09:55:47;38.75;;;16.10;;
68089;SDS011;54880;50.986;6.990;2023-04-16T09:58:12;29.63;;;15.50;;
68089;SDS011;54880;50.986;6.990;2023-04-16T10:00:42;33.05;;;16.33;;
68089;SDS011;54880;50.986;6.990;2023-04-16T10:03:07;31.00;;;16.20;;
68089;SDS011;54880;50.986;6.990;2023-04-16T10:05:32;32.87;;;16.40;;
68089;SDS011;54880;50.986;6.990;2023-04-16T10:08:00;31.83;;;16.03;;
68089;SDS011;54880;50.986;6.990;2023-04-16T10:10:26;32.70;;;16.67;;
68089;SDS011;54880;50.986;6.990;2023-04-16T10:12:52;35.67;;;16.98;;
68089;SDS011;54880;50.986;6.990;2023-04-16T10:15:18;37.17;;;16.20;;
68089;SDS011;54880;50.986;6.990;2023-04-16T10:17:43;31.23;;;16.67;;
68089;SDS011;54880;50.986;6.990;2023-04-16T10:20:09;29.23;;;15.48;;
68089;SDS011;54880;50.986;6.990;2023-04-16T10:22:35;31.88;;;16.42;;
68089;SDS011;54880;50.986;6.990;2023-04-16T10:25:00;30.20;;;15.85;;
68089;SDS011;54880;50.986;6.990;2023-04-16T10:27:26;30.23;;;14.90;;
68089;SDS011;54880;50.986;6.990;2023-04-16T10:29:51;31.25;;;14.73;;
68089;SDS011;54880;50.986;6.990;2023-04-16T10:32:17;29.27;;;14.63;;
68089;SDS011;54880;50.986;6.990;2023-04-16T10:34:44;30.50;;;15.18;;
68089;SDS011;54880;50.986;6.990;2023-04-16T10:37:11;32.43;;;15.47;;
68089;SDS011;54880;50.986;6.990;2023-04-16T10:39:36;31.92;;;16.23;;
68089;SDS011;54880;50.986;6.990;2023-04-16T10:42:06;33.27;;;16.00;;
68089;SDS011;54880;50.986;6.990;2023-04-16T10:44:31;35.88;;;15.68;;
68089;SDS011;54880;50.986;6.990;2023-04-16T10:46:58;62.30;;;16.70;;
68089;SDS011;54880;50.986;6.990;2023-04-16T10:49:23;55.95;;;16.90;;
68089;SDS011;54880;50.986;6.990;2023-04-16T10:54:27;45.38;;;16.02;;
68089;SDS011;54880;50.986;6.990;2023-04-16T10:56:53;58.78;;;18.23;;
68089;SDS011;54880;50.986;6.990;2023-04-16T10:59:20;30.67;;;16.17;;
68089;SDS011;54880;50.986;6.990;2023-04-16T11:01:48;47.63;;;17.55;;
68089;SDS011;54880;50.986;6.990;2023-04-16T11:12:34;29.83;;;16.45;;
68089;SDS011;54880;50.986;6.990;2023-04-16T11:15:00;30.40;;;14.83;;
68089;SDS011;54880;50.986;6.990;2023-04-16T11:17:32;28.38;;;14.30;;
68089;SDS011;54880;50.986;6.990;2023-04-16T11:19:59;29.67;;;15.10;;
68089;SDS011;54880;50.986;6.990;2023-04-16T11:22:24;27.27;;;15.30;;
68089;SDS011;54880;50.986;6.990;2023-04-16T11:24:54;27.02;;;15.30;;
68089;SDS011;54880;50.986;6.990;2023-04-16T11:27:20;26.52;;;16.00;;
68089;SDS011;54880;50.986;6.990;2023-04-16T11:29:45;56.07;;;16.63;;
68089;SDS011;54880;50.986;6.990;2023-04-16T11:32:20;53.88;;;17.08;;
68089;SDS011;54880;50.986;6.990;2023-04-16T11:34:46;112.90;;;19.70;;
68089;SDS011;54880;50.986;6.990;2023-04-16T11:37:12;33.92;;;14.95;;
68089;SDS011;54880;50.986;6.990;2023-04-16T11:39:47;27.35;;;15.43;;
68089;SDS011;54880;50.986;6.990;2023-04-16T11:42:17;39.80;;;15.80;;
68089;SDS011;54880;50.986;6.990;2023-04-16T11:44:42;28.20;;;15.25;;
68089;SDS011;54880;50.986;6.990;2023-04-16T11:47:07;37.10;;;16.27;;
68089;SDS011;54880;50.986;6.990;2023-04-16T11:49:33;31.50;;;16.40;;
68089;SDS011;54880;50.986;6.990;2023-04-16T11:51:58;26.47;;;15.67;;
68089;SDS011;54880;50.986;6.990;2023-04-16T11:54:23;27.43;;;15.13;;
68089;SDS011;54880;50.986;6.990;2023-04-16T11:56:50;33.13;;;16.45;;
68089;SDS011;54880;50.986;6.990;2023-04-16T11:59:19;27.97;;;16.53;;
68089;SDS011;54880;50.986;6.990;2023-04-16T12:01:48;29.73;;;16.48;;
68089;SDS011;54880;50.986;6.990;2023-04-16T12:04:14;24.42;;;15.07;;
68089;SDS011;54880;50.986;6.990;2023-04-16T12:06:40;26.52;;;14.65;;
68089;SDS011;54880;50.986;6.990;2023-04-16T12:09:24;25.95;;;15.40;;
68089;SDS011;54880;50.986;6.990;2023-04-16T12:11:50;26.60;;;15.43;;
68089;SDS011;54880;50.986;6.990;2023-04-16T12:14:15;26.83;;;14.93;;
68089;SDS011;54880;50.986;6.990;2023-04-16T12:16:40;25.67;;;15.77;;
68089;SDS011;54880;50.986;6.990;2023-04-16T12:19:06;23.63;;;14.67;;
68089;SDS011;54880;50.986;6.990;2023-04-16T12:21:35;24.95;;;15.05;;
68089;SDS011;54880;50.986;6.990;2023-04-16T12:24:00;24.30;;;15.23;;
68089;SDS011;54880;50.986;6.990;2023-04-16T12:26:26;22.60;;;13.95;;
68089;SDS011;54880;50.986;6.990;2023-04-16T12:28:51;24.30;;;13.83;;
68089;SDS011;54880;50.986;6.990;2023-04-16T12:31:16;23.43;;;14.60;;
68089;SDS011;54880;50.986;6.990;2023-04-16T12:33:41;23.83;;;14.30;;
68089;SDS011;54880;50.986;6.990;2023-04-16T12:36:17;21.90;;;13.37;;
68089;SDS011;54880;50.986;6.990;2023-04-16T12:38:42;36.00;;;13.88;;
68089;SDS011;54880;50.986;6.990;2023-04-16T12:41:07;25.23;;;12.27;;
68089;SDS011;54880;50.986;6.990;2023-04-16T12:43:33;22.57;;;13.27;;
68089;SDS011;54880;50.986;6.990;2023-04-16T12:45:58;23.10;;;12.70;;
68089;SDS011;54880;50.986;6.990;2023-04-16T12:48:23;31.17;;;14.17;;
68089;SDS011;54880;50.986;6.990;2023-04-16T12:50:48;25.60;;;13.23;;
68089;SDS011;54880;50.986;6.990;2023-04-16T12:53:14;25.03;;;13.30;;
68089;SDS011;54880;50.986;6.990;2023-04-16T12:55:39;27.17;;;15.90;;
68089;SDS011;54880;50.986;6.990;2023-04-16T12:58:04;24.93;;;13.83;;
68089;SDS011;54880;50.986;6.990;2023-04-16T13:00:30;24.65;;;13.95;;
68089;SDS011;54880;50.986;6.990;2023-04-16T13:02:56;21.80;;;12.97;;
68089;SDS011;54880;50.986;6.990;2023-04-16T13:05:21;23.17;;;12.93;;
68089;SDS011;54880;50.986;6.990;2023-04-16T13:07:46;21.57;;;12.33;;
68089;SDS011;54880;50.986;6.990;2023-04-16T13:10:11;22.33;;;13.20;;
68089;SDS011;54880;50.986;6.990;2023-04-16T13:12:37;19.92;;;12.30;;
68089;SDS011;54880;50.986;6.990;2023-04-16T13:15:02;22.13;;;12.60;;
68089;SDS011;54880;50.986;6.990;2023-04-16T13:17:28;22.03;;;13.00;;
68089;SDS011;54880;50.986;6.990;2023-04-16T13:19:53;21.13;;;13.07;;
68089;SDS011;54880;50.986;6.990;2023-04-16T13:22:18;20.77;;;12.70;;
68089;SDS011;54880;50.986;6.990;2023-04-16T13:24:44;22.30;;;12.80;;
68089;SDS011;54880;50.986;6.990;2023-04-16T13:27:10;20.42;;;13.00;;
68089;SDS011;54880;50.986;6.990;2023-04-16T13:29:35;21.77;;;13.10;;
68089;SDS011;54880;50.986;6.990;2023-04-16T13:32:00;22.27;;;13.27;;
68089;SDS011;54880;50.986;6.990;2023-04-16T13:34:26;20.40;;;12.80;;
68089;SDS011;54880;50.986;6.990;2023-04-16T13:36:51;23.73;;;13.33;;
68089;SDS011;54880;50.986;6.990;2023-04-16T13:39:16;20.20;;;12.73;;
68089;SDS011;54880;50.986;6.990;2023-04-16T13:41:41;20.17;;;12.90;;
68089;SDS011;54880;50.986;6.990;2023-04-16T13:44:07;24.60;;;13.43;;
68089;SDS011;54880;50.986;6.990;2023-04-16T13:46:32;19.07;;;12.27;;
68089;SDS011;54880;50.986;6.990;2023-04-16T13:48:57;22.33;;;12.17;;
68089;SDS011;54880;50.986;6.990;2023-04-16T13:51:23;20.53;;;11.87;;
68089;SDS011;54880;50.986;6.990;2023-04-16T13:53:48;19.80;;;12.37;;
68089;SDS011;54880;50.986;6.990;2023-04-16T13:56:13;18.93;;;11.40;;
68089;SDS011;54880;50.986;6.990;2023-04-16T13:58:39;32.10;;;13.50;;
68089;SDS011;54880;50.986;6.990;2023-04-16T14:01:05;26.97;;;11.97;;
68089;SDS011;54880;50.986;6.990;2023-04-16T14:03:30;22.73;;;11.25;;
68089;SDS011;54880;50.986;6.990;2023-04-16T14:06:03;26.03;;;12.13;;
68089;SDS011;54880;50.986;6.990;2023-04-16T14:08:28;21.77;;;11.25;;
68089;SDS011;54880;50.986;6.990;2023-04-16T14:10:54;22.60;;;12.63;;
68089;SDS011;54880;50.986;6.990;2023-04-16T14:13:20;26.63;;;12.73;;
68089;SDS011;54880;50.986;6.990;2023-04-16T14:15:45;19.20;;;11.30;;
68089;SDS011;54880;50.986;6.990;2023-04-16T14:18:10;19.10;;;12.20;;
68089;SDS011;54880;50.986;6.990;2023-04-16T14:20:37;18.97;;;12.83;;
68089;SDS011;54880;50.986;6.990;2023-04-16T14:23:04;20.13;;;11.95;;
68089;SDS011;54880;50.986;6.990;2023-04-16T14:25:29;19.65;;;12.68;;
68089;SDS011;54880;50.986;6.990;2023-04-16T14:27:54;20.13;;;13.38;;
68089;SDS011;54880;50.986;6.990;2023-04-16T14:30:20;21.20;;;12.43;;